createdAt,value
2017-03-11T00:00:13.848Z,-1.4
2017-03-11T00:00:32.497Z,-1.4
2017-03-11T00:00:51.158Z,-1.4
2017-03-11T00:01:09.826Z,-1.4
2017-03-11T00:01:28.480Z,-1.4
2017-03-11T00:01:47.153Z,-1.4
2017-03-11T00:02:05.804Z,-1.4
2017-03-11T00:02:24.453Z,-1.4
2017-03-11T00:02:43.111Z,-1.4
2017-03-11T00:03:01.761Z,-1.4
2017-03-11T00:03:20.416Z,-1.4
2017-03-11T00:03:39.094Z,-1.5
2017-03-11T00:03:57.770Z,-1.5
2017-03-11T00:04:16.461Z,-1.4
2017-03-11T00:04:35.109Z,-1.4
2017-03-11T00:04:53.759Z,-1.4
2017-03-11T00:05:12.411Z,-1.4
2017-03-11T00:05:31.067Z,-1.4
2017-03-11T00:05:49.761Z,-1.4
2017-03-11T00:06:08.416Z,-1.5
2017-03-11T00:06:27.082Z,-1.5
2017-03-11T00:06:45.736Z,-1.5
2017-03-11T00:07:04.414Z,-1.5
2017-03-11T00:07:23.075Z,-1.5
2017-03-11T00:07:41.730Z,-1.5
2017-03-11T00:08:00.385Z,-1.5
2017-03-11T00:08:19.034Z,-1.5
2017-03-11T00:08:37.693Z,-1.6
2017-03-11T00:08:56.375Z,-1.6
2017-03-11T00:09:15.039Z,-1.6
2017-03-11T00:09:33.704Z,-1.6
2017-03-11T00:09:52.357Z,-1.6
2017-03-11T00:10:11.004Z,-1.6
2017-03-11T00:10:29.684Z,-1.6
2017-03-11T00:10:48.349Z,-1.6
2017-03-11T00:11:07.006Z,-1.6
2017-03-11T00:11:25.669Z,-1.6
2017-03-11T00:11:44.329Z,-1.6
2017-03-11T00:12:02.980Z,-1.6
2017-03-11T00:12:21.654Z,-1.7
2017-03-11T00:12:40.308Z,-1.6
2017-03-11T00:12:58.971Z,-1.6
2017-03-11T00:13:17.620Z,-1.7
2017-03-11T00:13:36.299Z,-1.7
2017-03-11T00:13:54.968Z,-1.6
2017-03-11T00:14:13.623Z,-1.6
2017-03-11T00:14:32.276Z,-1.7
2017-03-11T00:14:50.929Z,-1.6
2017-03-11T00:15:09.585Z,-1.6
2017-03-11T00:15:28.241Z,-1.6
2017-03-11T00:15:46.891Z,-1.6
2017-03-11T00:16:05.555Z,-1.6
2017-03-11T00:16:24.208Z,-1.7
2017-03-11T00:16:42.860Z,-1.6
2017-03-11T00:17:01.523Z,-1.7
2017-03-11T00:17:20.182Z,-1.6
2017-03-11T00:17:38.855Z,-1.6
2017-03-11T00:17:57.508Z,-1.6
2017-03-11T00:18:16.180Z,-1.6
2017-03-11T00:18:34.842Z,-1.6
2017-03-11T00:18:53.499Z,-1.6
2017-03-11T00:19:12.151Z,-1.7
2017-03-11T00:19:30.808Z,-1.6
2017-03-11T00:19:49.478Z,-1.7
2017-03-11T00:20:08.130Z,-1.6
2017-03-11T00:20:26.780Z,-1.6
2017-03-11T00:20:45.435Z,-1.6
2017-03-11T00:21:04.084Z,-1.6
2017-03-11T00:21:22.733Z,-1.6
2017-03-11T00:21:41.416Z,-1.6
2017-03-11T00:22:00.065Z,-1.6
2017-03-11T00:22:18.724Z,-1.6
2017-03-11T00:22:37.391Z,-1.6
2017-03-11T00:22:56.091Z,-1.6
2017-03-11T00:23:14.746Z,-1.6
2017-03-11T00:23:33.402Z,-1.6
2017-03-11T00:23:52.055Z,-1.6
2017-03-11T00:24:10.704Z,-1.6
2017-03-11T00:24:29.369Z,-1.6
2017-03-11T00:24:48.021Z,-1.6
2017-03-11T00:25:06.688Z,-1.5
2017-03-11T00:25:25.343Z,-1.5
2017-03-11T00:25:44.006Z,-1.5
2017-03-11T00:26:02.661Z,-1.5
2017-03-11T00:26:21.346Z,-1.5
2017-03-11T00:26:39.998Z,-1.5
2017-03-11T00:26:58.651Z,-1.5
2017-03-11T00:27:17.305Z,-1.5
2017-03-11T00:27:35.957Z,-1.5
2017-03-11T00:27:54.655Z,-1.5
2017-03-11T00:28:13.328Z,-1.5
2017-03-11T00:28:31.987Z,-1.5
2017-03-11T00:28:50.643Z,-1.5
2017-03-11T00:29:09.298Z,-1.5
2017-03-11T00:29:27.953Z,-1.5
2017-03-11T00:29:46.609Z,-1.5
2017-03-11T00:30:05.261Z,-1.5
2017-03-11T00:30:23.914Z,-1.5
2017-03-11T00:30:42.569Z,-1.5
2017-03-11T00:31:01.254Z,-1.5
2017-03-11T00:31:19.906Z,-1.5
2017-03-11T00:31:38.559Z,-1.5
2017-03-11T00:31:57.211Z,-1.5
2017-03-11T00:32:15.855Z,-1.5
2017-03-11T00:32:34.510Z,-1.5
2017-03-11T00:32:53.164Z,-1.5
2017-03-11T00:33:11.812Z,-1.5
2017-03-11T00:33:30.466Z,-1.5
2017-03-11T00:33:49.116Z,-1.5
2017-03-11T00:34:07.770Z,-1.5
2017-03-11T00:34:26.423Z,-1.5
2017-03-11T00:34:45.079Z,-1.6
2017-03-11T00:35:03.739Z,-1.5
2017-03-11T00:35:22.395Z,-1.5
2017-03-11T00:35:41.065Z,-1.5
2017-03-11T00:35:59.718Z,-1.6
2017-03-11T00:36:18.387Z,-1.6
2017-03-11T00:36:37.051Z,-1.6
2017-03-11T00:36:55.702Z,-1.6
2017-03-11T00:37:14.353Z,-1.6
2017-03-11T00:37:33.001Z,-1.6
2017-03-11T00:37:51.656Z,-1.6
2017-03-11T00:38:10.318Z,-1.6
2017-03-11T00:38:28.972Z,-1.6
2017-03-11T00:38:47.658Z,-1.6
2017-03-11T00:39:06.339Z,-1.6
2017-03-11T00:39:25.003Z,-1.6
2017-03-11T00:39:43.660Z,-1.6
2017-03-11T00:40:02.319Z,-1.6
2017-03-11T00:40:20.985Z,-1.6
2017-03-11T00:40:39.655Z,-1.6
2017-03-11T00:40:58.321Z,-1.6
2017-03-11T00:41:16.978Z,-1.6
2017-03-11T00:41:35.627Z,-1.6
2017-03-11T00:41:54.286Z,-1.6
2017-03-11T00:42:12.936Z,-1.7
2017-03-11T00:42:31.586Z,-1.7
2017-03-11T00:42:50.246Z,-1.7
2017-03-11T00:43:08.899Z,-1.7
2017-03-11T00:43:27.550Z,-1.7
2017-03-11T00:43:46.235Z,-1.7
2017-03-11T00:44:04.917Z,-1.7
2017-03-11T00:44:23.580Z,-1.7
2017-03-11T00:44:42.230Z,-1.7
2017-03-11T00:45:00.881Z,-1.7
2017-03-11T00:45:19.575Z,-1.7
2017-03-11T00:45:38.253Z,-1.7
2017-03-11T00:45:56.903Z,-1.7
2017-03-11T00:46:15.557Z,-1.7
2017-03-11T00:46:34.209Z,-1.6
2017-03-11T00:46:52.871Z,-1.6
2017-03-11T00:47:11.526Z,-1.6
2017-03-11T00:47:30.177Z,-1.6
2017-03-11T00:47:48.840Z,-1.6
2017-03-11T00:48:07.497Z,-1.6
2017-03-11T00:48:26.174Z,-1.5
2017-03-11T00:48:44.825Z,-1.5
2017-03-11T00:49:03.479Z,-1.5
2017-03-11T00:49:22.145Z,-1.5
2017-03-11T00:49:40.793Z,-1.5
2017-03-11T00:49:59.448Z,-1.5
2017-03-11T00:50:18.104Z,-1.5
2017-03-11T00:50:36.764Z,-1.4
2017-03-11T00:50:55.414Z,-1.4
2017-03-11T00:51:14.079Z,-1.4
2017-03-11T00:51:32.733Z,-1.4
2017-03-11T00:51:51.379Z,-1.3
2017-03-11T00:52:10.029Z,-1.3
2017-03-11T00:52:28.694Z,-1.3
2017-03-11T00:52:47.349Z,-1.3
2017-03-11T00:53:06.038Z,-1.3
2017-03-11T00:53:24.693Z,-1.2
2017-03-11T00:53:43.354Z,-1.2
2017-03-11T00:54:02.011Z,-1.2
2017-03-11T00:54:20.661Z,-1.1
2017-03-11T00:54:39.327Z,-1.1
2017-03-11T00:54:58.005Z,-1.1
2017-03-11T00:55:16.664Z,-1.1
2017-03-11T00:55:35.317Z,-1.1
2017-03-11T00:55:53.977Z,-1.1
2017-03-11T00:56:12.628Z,-1
2017-03-11T00:56:31.297Z,-1
2017-03-11T00:56:49.950Z,-1
2017-03-11T00:57:08.633Z,-1
2017-03-11T00:57:27.283Z,-1
2017-03-11T00:57:45.954Z,-1
2017-03-11T00:58:04.607Z,-1
2017-03-11T00:58:23.263Z,-1
2017-03-11T00:58:41.915Z,-1
2017-03-11T00:59:00.568Z,-1
2017-03-11T00:59:19.224Z,-0.9
2017-03-11T00:59:37.880Z,-0.9
2017-03-11T00:59:56.540Z,-0.9
2017-03-11T01:00:15.187Z,-0.9
2017-03-11T01:00:33.838Z,-0.9
2017-03-11T01:00:52.507Z,-0.9
2017-03-11T01:01:11.194Z,-0.9
2017-03-11T01:01:29.862Z,-0.8
2017-03-11T01:01:48.514Z,-0.9
2017-03-11T01:02:07.174Z,-0.8
2017-03-11T01:02:25.827Z,-0.8
2017-03-11T01:02:44.504Z,-0.8
2017-03-11T01:03:03.164Z,-0.8
2017-03-11T01:03:21.833Z,-0.8
2017-03-11T01:03:40.479Z,-0.8
2017-03-11T01:03:59.129Z,-0.8
2017-03-11T01:04:17.788Z,-0.8
2017-03-11T01:04:36.443Z,-0.8
2017-03-11T01:04:55.100Z,-0.8
2017-03-11T01:05:13.778Z,-0.8
2017-03-11T01:05:32.433Z,-0.7
2017-03-11T01:05:51.117Z,-0.8
2017-03-11T01:06:09.769Z,-0.7
2017-03-11T01:06:28.424Z,-0.7
2017-03-11T01:06:47.106Z,-0.7
2017-03-11T01:07:05.767Z,-0.7
2017-03-11T01:07:24.477Z,-0.7
2017-03-11T01:07:43.133Z,-0.7
2017-03-11T01:08:01.784Z,-0.7
2017-03-11T01:08:20.440Z,-0.7
2017-03-11T01:08:39.093Z,-0.7
2017-03-11T01:08:57.762Z,-0.7
2017-03-11T01:09:16.414Z,-0.7
2017-03-11T01:09:35.072Z,-0.7
2017-03-11T01:09:53.728Z,-0.7
2017-03-11T01:10:12.383Z,-0.7
2017-03-11T01:10:31.074Z,-0.7
2017-03-11T01:10:49.726Z,-0.7
2017-03-11T01:11:08.376Z,-0.7
2017-03-11T01:11:27.028Z,-0.7
2017-03-11T01:11:45.682Z,-0.7
2017-03-11T01:12:04.333Z,-0.7
2017-03-11T01:12:23.001Z,-0.7
2017-03-11T01:12:41.652Z,-0.7
2017-03-11T01:13:00.312Z,-0.7
2017-03-11T01:13:18.966Z,-0.7
2017-03-11T01:13:37.613Z,-0.7
2017-03-11T01:13:56.257Z,-0.7
2017-03-11T01:14:14.911Z,-0.7
2017-03-11T01:14:33.569Z,-0.7
2017-03-11T01:14:52.227Z,-0.7
2017-03-11T01:15:10.895Z,-0.7
2017-03-11T01:15:29.551Z,-0.7
2017-03-11T01:15:48.237Z,-0.6
2017-03-11T01:16:06.886Z,-0.6
2017-03-11T01:16:25.547Z,-0.6
2017-03-11T01:16:44.210Z,-0.6
2017-03-11T01:17:02.869Z,-0.6
2017-03-11T01:17:21.519Z,-0.6
2017-03-11T01:17:40.170Z,-0.5
2017-03-11T01:17:58.824Z,-0.5
2017-03-11T01:18:17.483Z,-0.5
2017-03-11T01:18:36.159Z,-0.5
2017-03-11T01:18:54.810Z,-0.5
2017-03-11T01:19:13.461Z,-0.5
2017-03-11T01:19:32.113Z,-0.5
2017-03-11T01:19:50.770Z,-0.5
2017-03-11T01:20:09.460Z,-0.5
2017-03-11T01:20:28.113Z,-0.5
2017-03-11T01:20:46.766Z,-0.5
2017-03-11T01:21:05.427Z,-0.5
2017-03-11T01:21:24.077Z,-0.5
2017-03-11T01:21:42.725Z,-0.5
2017-03-11T01:22:01.382Z,-0.5
2017-03-11T01:22:20.035Z,-0.5
2017-03-11T01:22:38.692Z,-0.5
2017-03-11T01:22:57.356Z,-0.5
2017-03-11T01:23:16.041Z,-0.5
2017-03-11T01:23:34.694Z,-0.5
2017-03-11T01:23:53.351Z,-0.5
2017-03-11T01:24:12.003Z,-0.5
2017-03-11T01:24:30.655Z,-0.5
2017-03-11T01:24:49.316Z,-0.6
2017-03-11T01:25:07.966Z,-0.6
2017-03-11T01:25:26.649Z,-0.6
2017-03-11T01:25:45.307Z,-0.6
2017-03-11T01:26:03.963Z,-0.6
2017-03-11T01:26:22.652Z,-0.6
2017-03-11T01:26:41.314Z,-0.6
2017-03-11T01:26:59.970Z,-0.6
2017-03-11T01:27:18.623Z,-0.6
2017-03-11T01:27:37.281Z,-0.6
2017-03-11T01:27:55.963Z,-0.7
2017-03-11T01:28:14.630Z,-0.7
2017-03-11T01:28:33.285Z,-0.7
2017-03-11T01:28:51.944Z,-0.7
2017-03-11T01:29:10.592Z,-0.7
2017-03-11T01:29:29.258Z,-0.7
2017-03-11T01:29:47.912Z,-0.7
2017-03-11T01:30:06.565Z,-0.7
2017-03-11T01:30:25.214Z,-0.7
2017-03-11T01:30:43.865Z,-0.8
2017-03-11T01:31:02.518Z,-0.8
2017-03-11T01:31:21.180Z,-0.8
2017-03-11T01:31:39.842Z,-0.8
2017-03-11T01:31:58.495Z,-0.8
2017-03-11T01:32:17.153Z,-0.8
2017-03-11T01:32:35.839Z,-0.8
2017-03-11T01:32:54.487Z,-0.9
2017-03-11T01:33:13.143Z,-0.9
2017-03-11T01:33:31.799Z,-0.9
2017-03-11T01:33:50.462Z,-0.9
2017-03-11T01:34:09.112Z,-0.9
2017-03-11T01:34:27.764Z,-0.9
2017-03-11T01:34:46.415Z,-0.9
2017-03-11T01:35:05.065Z,-1
2017-03-11T01:35:23.726Z,-1
2017-03-11T01:35:42.383Z,-1
2017-03-11T01:36:01.057Z,-1
2017-03-11T01:36:19.720Z,-1
2017-03-11T01:36:38.373Z,-1
2017-03-11T01:36:57.041Z,-1
2017-03-11T01:37:15.696Z,-1.1
2017-03-11T01:37:34.389Z,-1.1
2017-03-11T01:37:53.044Z,-1.1
2017-03-11T01:38:11.708Z,-1.2
2017-03-11T01:38:30.361Z,-1.2
2017-03-11T01:38:49.010Z,-1.2
2017-03-11T01:39:07.676Z,-1.2
2017-03-11T01:39:26.325Z,-1.2
2017-03-11T01:39:44.975Z,-1.3
2017-03-11T01:40:03.629Z,-1.3
2017-03-11T01:40:22.292Z,-1.3
2017-03-11T01:40:40.983Z,-1.3
2017-03-11T01:40:59.636Z,-1.3
2017-03-11T01:41:18.289Z,-1.3
2017-03-11T01:41:36.940Z,-1.3
2017-03-11T01:41:55.599Z,-1.4
2017-03-11T01:42:14.288Z,-1.4
2017-03-11T01:42:32.940Z,-1.4
2017-03-11T01:42:51.592Z,-1.4
2017-03-11T01:43:10.261Z,-1.4
2017-03-11T01:43:28.925Z,-1.4
2017-03-11T01:43:47.588Z,-1.4
2017-03-11T01:44:06.251Z,-1.4
2017-03-11T01:44:24.901Z,-1.4
2017-03-11T01:44:43.565Z,-1.4
2017-03-11T01:45:02.216Z,-1.4
2017-03-11T01:45:20.901Z,-1.4
2017-03-11T01:45:39.555Z,-1.4
2017-03-11T01:45:58.219Z,-1.4
2017-03-11T01:46:16.873Z,-1.5
2017-03-11T01:46:35.530Z,-1.5
2017-03-11T01:46:54.178Z,-1.5
2017-03-11T01:47:12.830Z,-1.5
2017-03-11T01:47:31.517Z,-1.4
2017-03-11T01:47:50.173Z,-1.4
2017-03-11T01:48:08.844Z,-1.4
2017-03-11T01:48:27.499Z,-1.4
2017-03-11T01:48:46.173Z,-1.4
2017-03-11T01:49:04.831Z,-1.4
2017-03-11T01:49:23.479Z,-1.4
2017-03-11T01:49:42.136Z,-1.4
2017-03-11T01:50:00.815Z,-1.4
2017-03-11T01:50:19.472Z,-1.4
2017-03-11T01:50:38.123Z,-1.4
2017-03-11T01:50:56.779Z,-1.4
2017-03-11T01:51:15.460Z,-1.4
2017-03-11T01:51:34.129Z,-1.4
2017-03-11T01:51:52.788Z,-1.4
2017-03-11T01:52:11.440Z,-1.4
2017-03-11T01:52:30.106Z,-1.4
2017-03-11T01:52:48.768Z,-1.4
2017-03-11T01:53:07.421Z,-1.4
2017-03-11T01:53:26.073Z,-1.4
2017-03-11T01:53:44.726Z,-1.4
2017-03-11T01:54:03.382Z,-1.4
2017-03-11T01:54:22.030Z,-1.4
2017-03-11T01:54:40.696Z,-1.4
2017-03-11T01:54:59.351Z,-1.4
2017-03-11T01:55:18.002Z,-1.4
2017-03-11T01:55:36.655Z,-1.4
2017-03-11T01:55:55.322Z,-1.5
2017-03-11T01:56:13.975Z,-1.5
2017-03-11T01:56:32.634Z,-1.5
2017-03-11T01:56:51.291Z,-1.5
2017-03-11T01:57:09.949Z,-1.5
2017-03-11T01:57:28.599Z,-1.5
2017-03-11T01:57:47.256Z,-1.5
2017-03-11T01:58:05.953Z,-1.5
2017-03-11T01:58:24.611Z,-1.5
2017-03-11T01:58:43.276Z,-1.5
2017-03-11T01:59:01.939Z,-1.5
2017-03-11T01:59:20.617Z,-1.5
2017-03-11T01:59:39.307Z,-1.5
2017-03-11T01:59:57.961Z,-1.5
2017-03-11T02:00:16.613Z,-1.5
2017-03-11T02:00:35.264Z,-1.5
2017-03-11T02:00:53.916Z,-1.5
2017-03-11T02:01:12.568Z,-1.5
2017-03-11T02:01:31.228Z,-1.5
2017-03-11T02:01:49.881Z,-1.5
2017-03-11T02:02:08.532Z,-1.6
2017-03-11T02:02:27.181Z,-1.6
2017-03-11T02:02:45.864Z,-1.6
2017-03-11T02:03:04.515Z,-1.6
2017-03-11T02:03:23.171Z,-1.6
2017-03-11T02:03:41.824Z,-1.6
2017-03-11T02:04:00.476Z,-1.6
2017-03-11T02:04:19.129Z,-1.6
2017-03-11T02:04:37.783Z,-1.6
2017-03-11T02:04:56.439Z,-1.6
2017-03-11T02:05:15.095Z,-1.7
2017-03-11T02:05:33.744Z,-1.7
2017-03-11T02:05:52.395Z,-1.7
2017-03-11T02:06:11.051Z,-1.7
2017-03-11T02:06:29.702Z,-1.7
2017-03-11T02:06:48.364Z,-1.7
2017-03-11T02:07:07.020Z,-1.7
2017-03-11T02:07:25.697Z,-1.7
2017-03-11T02:07:44.348Z,-1.7
2017-03-11T02:08:03.023Z,-1.6
2017-03-11T02:08:21.681Z,-1.7
2017-03-11T02:08:40.355Z,-1.7
2017-03-11T02:08:59.012Z,-1.7
2017-03-11T02:09:17.666Z,-1.7
2017-03-11T02:09:36.329Z,-1.7
2017-03-11T02:09:54.987Z,-1.7
2017-03-11T02:10:13.639Z,-1.7
2017-03-11T02:10:32.304Z,-1.7
2017-03-11T02:10:50.969Z,-1.7
2017-03-11T02:11:09.640Z,-1.7
2017-03-11T02:11:28.289Z,-1.7
2017-03-11T02:11:46.942Z,-1.7
2017-03-11T02:12:05.606Z,-1.6
2017-03-11T02:12:24.267Z,-1.6
2017-03-11T02:12:42.915Z,-1.6
2017-03-11T02:13:01.564Z,-1.6
2017-03-11T02:13:20.228Z,-1.6
2017-03-11T02:13:38.873Z,-1.6
2017-03-11T02:13:57.528Z,-1.6
2017-03-11T02:14:16.178Z,-1.6
2017-03-11T02:14:34.828Z,-1.5
2017-03-11T02:14:53.478Z,-1.5
2017-03-11T02:15:12.149Z,-1.5
2017-03-11T02:15:30.829Z,-1.5
2017-03-11T02:15:49.480Z,-1.5
2017-03-11T02:16:08.134Z,-1.5
2017-03-11T02:16:26.783Z,-1.5
2017-03-11T02:16:45.445Z,-1.5
2017-03-11T02:17:04.127Z,-1.5
2017-03-11T02:17:22.785Z,-1.5
2017-03-11T02:17:41.444Z,-1.5
2017-03-11T02:18:00.104Z,-1.5
2017-03-11T02:18:18.752Z,-1.5
2017-03-11T02:18:37.411Z,-1.5
2017-03-11T02:18:56.082Z,-1.5
2017-03-11T02:19:14.771Z,-1.5
2017-03-11T02:19:33.431Z,-1.5
2017-03-11T02:19:52.080Z,-1.5
2017-03-11T02:20:10.759Z,-1.5
2017-03-11T02:20:29.410Z,-1.5
2017-03-11T02:20:48.066Z,-1.5
2017-03-11T02:21:06.718Z,-1.5
2017-03-11T02:21:25.384Z,-1.5
2017-03-11T02:21:44.043Z,-1.4
2017-03-11T02:22:02.712Z,-1.4
2017-03-11T02:22:21.362Z,-1.4
2017-03-11T02:22:40.023Z,-1.4
2017-03-11T02:22:58.670Z,-1.4
2017-03-11T02:23:17.324Z,-1.4
2017-03-11T02:23:35.980Z,-1.3
2017-03-11T02:23:54.645Z,-1.3
2017-03-11T02:24:13.297Z,-1.3
2017-03-11T02:24:31.978Z,-1.3
2017-03-11T02:24:50.648Z,-1.3
2017-03-11T02:25:09.311Z,-1.3
2017-03-11T02:25:27.970Z,-1.3
2017-03-11T02:25:46.630Z,-1.3
2017-03-11T02:26:05.280Z,-1.3
2017-03-11T02:26:23.951Z,-1.3
2017-03-11T02:26:42.606Z,-1.3
2017-03-11T02:27:01.260Z,-1.3
2017-03-11T02:27:19.917Z,-1.3
2017-03-11T02:27:38.568Z,-1.3
2017-03-11T02:27:57.230Z,-1.3
2017-03-11T02:28:15.909Z,-1.4
2017-03-11T02:28:34.557Z,-1.4
2017-03-11T02:28:53.213Z,-1.4
2017-03-11T02:29:11.864Z,-1.4
2017-03-11T02:29:30.537Z,-1.4
2017-03-11T02:29:49.217Z,-1.4
2017-03-11T02:30:07.875Z,-1.4
2017-03-11T02:30:26.525Z,-1.4
2017-03-11T02:30:45.175Z,-1.5
2017-03-11T02:31:03.828Z,-1.5
2017-03-11T02:31:22.493Z,-1.5
2017-03-11T02:31:41.148Z,-1.5
2017-03-11T02:31:59.801Z,-1.5
2017-03-11T02:32:18.456Z,-1.5
2017-03-11T02:32:37.108Z,-1.5
2017-03-11T02:32:55.790Z,-1.5
2017-03-11T02:33:14.440Z,-1.6
2017-03-11T02:33:33.093Z,-1.6
2017-03-11T02:33:51.748Z,-1.6
2017-03-11T02:34:10.405Z,-1.6
2017-03-11T02:34:29.098Z,-1.6
2017-03-11T02:34:47.756Z,-1.6
2017-03-11T02:35:06.443Z,-1.6
2017-03-11T02:35:25.096Z,-1.6
2017-03-11T02:35:43.751Z,-1.6
2017-03-11T02:36:02.399Z,-1.6
2017-03-11T02:36:21.047Z,-1.6
2017-03-11T02:36:39.697Z,-1.6
2017-03-11T02:36:58.363Z,-1.6
2017-03-11T02:37:17.018Z,-1.6
2017-03-11T02:37:35.697Z,-1.6
2017-03-11T02:37:54.352Z,-1.6
2017-03-11T02:38:13.014Z,-1.6
2017-03-11T02:38:31.678Z,-1.6
2017-03-11T02:38:50.323Z,-1.6
2017-03-11T02:39:09.008Z,-1.6
2017-03-11T02:39:27.660Z,-1.6
2017-03-11T02:39:46.312Z,-1.6
2017-03-11T02:40:04.962Z,-1.6
2017-03-11T02:40:23.624Z,-1.6
2017-03-11T02:40:42.271Z,-1.6
2017-03-11T02:41:00.925Z,-1.6
2017-03-11T02:41:19.574Z,-1.6
2017-03-11T02:41:38.253Z,-1.6
2017-03-11T02:41:56.907Z,-1.6
2017-03-11T02:42:15.585Z,-1.6
2017-03-11T02:42:34.244Z,-1.6
2017-03-11T02:42:52.901Z,-1.6
2017-03-11T02:43:11.553Z,-1.6
2017-03-11T02:43:30.205Z,-1.6
2017-03-11T02:43:48.865Z,-1.6
2017-03-11T02:44:07.521Z,-1.6
2017-03-11T02:44:26.182Z,-1.6
2017-03-11T02:44:44.830Z,-1.6
2017-03-11T02:45:03.485Z,-1.6
2017-03-11T02:45:22.140Z,-1.6
2017-03-11T02:45:40.832Z,-1.6
2017-03-11T02:45:59.483Z,-1.6
2017-03-11T02:46:18.138Z,-1.6
2017-03-11T02:46:36.809Z,-1.6
2017-03-11T02:46:55.481Z,-1.6
2017-03-11T02:47:14.133Z,-1.6
2017-03-11T02:47:32.786Z,-1.7
2017-03-11T02:47:51.444Z,-1.7
2017-03-11T02:48:10.094Z,-1.7
2017-03-11T02:48:28.758Z,-1.7
2017-03-11T02:48:47.407Z,-1.7
2017-03-11T02:49:06.056Z,-1.7
2017-03-11T02:49:24.710Z,-1.7
2017-03-11T02:49:43.360Z,-1.7
2017-03-11T02:50:02.014Z,-1.7
2017-03-11T02:50:20.713Z,-1.7
2017-03-11T02:50:39.371Z,-1.7
2017-03-11T02:50:58.028Z,-1.7
2017-03-11T02:51:16.694Z,-1.7
2017-03-11T02:51:35.346Z,-1.7
2017-03-11T02:51:54.036Z,-1.7
2017-03-11T02:52:12.692Z,-1.7
2017-03-11T02:52:31.343Z,-1.7
2017-03-11T02:52:50.000Z,-1.7
2017-03-11T02:53:08.654Z,-1.7
2017-03-11T02:53:27.306Z,-1.6
2017-03-11T02:53:45.968Z,-1.6
2017-03-11T02:54:04.617Z,-1.6
2017-03-11T02:54:23.271Z,-1.6
2017-03-11T02:54:41.927Z,-1.6
2017-03-11T02:55:00.604Z,-1.6
2017-03-11T02:55:19.258Z,-1.6
2017-03-11T02:55:37.910Z,-1.6
2017-03-11T02:55:56.559Z,-1.6
2017-03-11T02:56:15.227Z,-1.6
2017-03-11T02:56:33.882Z,-1.5
2017-03-11T02:56:52.544Z,-1.5
2017-03-11T02:57:11.202Z,-1.5
2017-03-11T02:57:29.850Z,-1.5
2017-03-11T02:57:48.516Z,-1.5
2017-03-11T02:58:07.177Z,-1.5
2017-03-11T02:58:25.841Z,-1.5
2017-03-11T02:58:44.493Z,-1.5
2017-03-11T02:59:03.153Z,-1.5
2017-03-11T02:59:21.797Z,-1.5
2017-03-11T02:59:40.473Z,-1.5
2017-03-11T02:59:59.128Z,-1.5
2017-03-11T03:00:17.782Z,-1.5
2017-03-11T03:00:36.442Z,-1.5
2017-03-11T03:00:55.090Z,-1.5
2017-03-11T03:01:13.753Z,-1.5
2017-03-11T03:01:32.419Z,-1.5
2017-03-11T03:01:51.083Z,-1.5
2017-03-11T03:02:09.736Z,-1.5
2017-03-11T03:02:28.394Z,-1.4
2017-03-11T03:02:47.040Z,-1.4
2017-03-11T03:03:05.725Z,-1.4
2017-03-11T03:03:24.379Z,-1.4
2017-03-11T03:03:43.036Z,-1.4
2017-03-11T03:04:01.707Z,-1.4
2017-03-11T03:04:20.380Z,-1.4
2017-03-11T03:04:39.049Z,-1.4
2017-03-11T03:04:57.696Z,-1.4
2017-03-11T03:05:16.349Z,-1.4
2017-03-11T03:05:35.008Z,-1.4
2017-03-11T03:05:53.660Z,-1.4
2017-03-11T03:06:12.313Z,-1.4
2017-03-11T03:06:30.968Z,-1.4
2017-03-11T03:06:49.640Z,-1.4
2017-03-11T03:07:08.291Z,-1.4
2017-03-11T03:07:26.961Z,-1.4
2017-03-11T03:07:45.639Z,-1.4
2017-03-11T03:08:04.287Z,-1.4
2017-03-11T03:08:22.939Z,-1.4
2017-03-11T03:08:41.589Z,-1.3
2017-03-11T03:09:00.239Z,-1.3
2017-03-11T03:09:18.921Z,-1.3
2017-03-11T03:09:37.579Z,-1.3
2017-03-11T03:09:56.240Z,-1.3
2017-03-11T03:10:14.893Z,-1.3
2017-03-11T03:10:33.543Z,-1.3
2017-03-11T03:10:52.204Z,-1.3
2017-03-11T03:11:10.858Z,-1.3
2017-03-11T03:11:29.515Z,-1.2
2017-03-11T03:11:48.166Z,-1.2
2017-03-11T03:12:06.847Z,-1.2
2017-03-11T03:12:25.526Z,-1.2
2017-03-11T03:12:44.180Z,-1.2
2017-03-11T03:13:02.843Z,-1.2
2017-03-11T03:13:21.504Z,-1.2
2017-03-11T03:13:40.170Z,-1.2
2017-03-11T03:13:58.822Z,-1.2
2017-03-11T03:14:17.489Z,-1.2
2017-03-11T03:14:36.144Z,-1.2
2017-03-11T03:14:54.799Z,-1.2
2017-03-11T03:15:13.454Z,-1.1
2017-03-11T03:15:32.103Z,-1.1
2017-03-11T03:15:50.761Z,-1.1
2017-03-11T03:16:09.413Z,-1.1
2017-03-11T03:16:28.087Z,-1.1
2017-03-11T03:16:46.743Z,-1.1
2017-03-11T03:17:05.420Z,-1.1
2017-03-11T03:17:24.081Z,-1.1
2017-03-11T03:17:42.744Z,-1.1
2017-03-11T03:18:01.390Z,-1
2017-03-11T03:18:20.054Z,-1
2017-03-11T03:18:38.709Z,-1
2017-03-11T03:18:57.365Z,-1
2017-03-11T03:19:16.010Z,-1
2017-03-11T03:19:34.663Z,-1
2017-03-11T03:19:53.317Z,-1
2017-03-11T03:20:11.972Z,-1
2017-03-11T03:20:30.657Z,-0.9
2017-03-11T03:20:49.311Z,-0.9
2017-03-11T03:21:07.967Z,-0.9
2017-03-11T03:21:26.619Z,-0.9
2017-03-11T03:21:45.288Z,-0.9
2017-03-11T03:22:03.969Z,-0.9
2017-03-11T03:22:22.622Z,-0.9
2017-03-11T03:22:41.291Z,-0.9
2017-03-11T03:22:59.938Z,-0.9
2017-03-11T03:23:18.587Z,-0.9
2017-03-11T03:23:37.246Z,-0.8
2017-03-11T03:23:55.899Z,-0.8
2017-03-11T03:24:14.567Z,-0.8
2017-03-11T03:24:33.219Z,-0.8
2017-03-11T03:24:51.876Z,-0.8
2017-03-11T03:25:10.560Z,-0.8
2017-03-11T03:25:29.220Z,-0.8
2017-03-11T03:25:47.870Z,-0.8
2017-03-11T03:26:06.518Z,-0.7
2017-03-11T03:26:25.173Z,-0.7
2017-03-11T03:26:43.862Z,-0.7
2017-03-11T03:27:02.532Z,-0.7
2017-03-11T03:27:21.208Z,-0.7
2017-03-11T03:27:39.873Z,-0.7
2017-03-11T03:27:58.543Z,-0.7
2017-03-11T03:28:17.190Z,-0.7
2017-03-11T03:28:35.841Z,-0.7
2017-03-11T03:28:54.490Z,-0.7
2017-03-11T03:29:13.154Z,-0.7
2017-03-11T03:29:31.812Z,-0.6
2017-03-11T03:29:50.507Z,-0.6
2017-03-11T03:30:09.162Z,-0.6
2017-03-11T03:30:27.827Z,-0.6
2017-03-11T03:30:46.475Z,-0.6
2017-03-11T03:31:05.140Z,-0.6
2017-03-11T03:31:23.828Z,-0.6
2017-03-11T03:31:42.483Z,-0.6
2017-03-11T03:32:01.135Z,-0.6
2017-03-11T03:32:19.788Z,-0.6
2017-03-11T03:32:38.441Z,-0.6
2017-03-11T03:32:57.102Z,-0.6
2017-03-11T03:33:15.774Z,-0.6
2017-03-11T03:33:34.426Z,-0.6
2017-03-11T03:33:53.085Z,-0.6
2017-03-11T03:34:11.738Z,-0.6
2017-03-11T03:34:30.412Z,-0.6
2017-03-11T03:34:49.066Z,-0.6
2017-03-11T03:35:07.726Z,-0.6
2017-03-11T03:35:26.381Z,-0.6
2017-03-11T03:35:45.027Z,-0.6
2017-03-11T03:36:03.682Z,-0.6
2017-03-11T03:36:22.340Z,-0.6
2017-03-11T03:36:41.018Z,-0.6
2017-03-11T03:36:59.673Z,-0.6
2017-03-11T03:37:18.334Z,-0.7
2017-03-11T03:37:36.992Z,-0.7
2017-03-11T03:37:55.645Z,-0.7
2017-03-11T03:38:14.297Z,-0.7
2017-03-11T03:38:32.976Z,-0.7
2017-03-11T03:38:51.629Z,-0.7
2017-03-11T03:39:10.301Z,-0.7
2017-03-11T03:39:28.954Z,-0.7
2017-03-11T03:39:47.608Z,-0.7
2017-03-11T03:40:06.263Z,-0.7
2017-03-11T03:40:24.929Z,-0.7
2017-03-11T03:40:43.583Z,-0.7
2017-03-11T03:41:02.246Z,-0.7
2017-03-11T03:41:20.925Z,-0.8
2017-03-11T03:41:39.591Z,-0.8
2017-03-11T03:41:58.237Z,-0.8
2017-03-11T03:42:16.886Z,-0.8
2017-03-11T03:42:35.586Z,-0.8
2017-03-11T03:42:54.241Z,-0.8
2017-03-11T03:43:12.895Z,-0.8
2017-03-11T03:43:31.551Z,-0.8
2017-03-11T03:43:50.240Z,-0.8
2017-03-11T03:44:08.892Z,-0.8
2017-03-11T03:44:27.541Z,-0.8
2017-03-11T03:44:46.200Z,-0.8
2017-03-11T03:45:04.854Z,-0.8
2017-03-11T03:45:23.529Z,-0.9
2017-03-11T03:45:42.176Z,-0.8
2017-03-11T03:46:00.850Z,-0.9
2017-03-11T03:46:19.521Z,-0.9
2017-03-11T03:46:38.170Z,-0.9
2017-03-11T03:46:56.835Z,-0.9
2017-03-11T03:47:15.537Z,-0.9
2017-03-11T03:47:34.188Z,-0.8
2017-03-11T03:47:52.842Z,-0.8
2017-03-11T03:48:11.489Z,-0.8
2017-03-11T03:48:30.151Z,-0.8
2017-03-11T03:48:48.837Z,-0.8
2017-03-11T03:49:07.498Z,-0.8
2017-03-11T03:49:26.143Z,-0.8
2017-03-11T03:49:44.794Z,-0.8
2017-03-11T03:50:03.453Z,-0.8
2017-03-11T03:50:22.110Z,-0.8
2017-03-11T03:50:40.762Z,-0.8
2017-03-11T03:50:59.417Z,-0.8
2017-03-11T03:51:18.069Z,-0.8
2017-03-11T03:51:36.722Z,-0.8
2017-03-11T03:51:55.395Z,-0.8
2017-03-11T03:52:14.047Z,-0.8
2017-03-11T03:52:32.729Z,-0.8
2017-03-11T03:52:51.384Z,-0.8
2017-03-11T03:53:10.041Z,-0.8
2017-03-11T03:53:28.721Z,-0.8
2017-03-11T03:53:47.372Z,-0.8
2017-03-11T03:54:06.024Z,-0.7
2017-03-11T03:54:24.701Z,-0.7
2017-03-11T03:54:43.360Z,-0.7
2017-03-11T03:55:02.015Z,-0.7
2017-03-11T03:55:20.668Z,-0.7
2017-03-11T03:55:39.328Z,-0.7
2017-03-11T03:55:57.983Z,-0.7
2017-03-11T03:56:16.640Z,-0.7
2017-03-11T03:56:35.336Z,-0.6
2017-03-11T03:56:53.984Z,-0.6
2017-03-11T03:57:12.641Z,-0.6
2017-03-11T03:57:31.296Z,-0.6
2017-03-11T03:57:49.962Z,-0.6
2017-03-11T03:58:08.618Z,-0.6
2017-03-11T03:58:27.273Z,-0.6
2017-03-11T03:58:45.937Z,-0.6
2017-03-11T03:59:04.584Z,-0.5
2017-03-11T03:59:23.233Z,-0.5
2017-03-11T03:59:41.892Z,-0.5
2017-03-11T04:00:00.547Z,-0.5
2017-03-11T04:00:19.205Z,-0.5
2017-03-11T04:00:37.857Z,-0.5
2017-03-11T04:00:56.515Z,-0.5
2017-03-11T04:01:15.180Z,-0.5
2017-03-11T04:01:33.858Z,-0.5
2017-03-11T04:01:52.516Z,-0.5
2017-03-11T04:02:11.178Z,-0.5
2017-03-11T04:02:29.832Z,-0.5
2017-03-11T04:02:48.486Z,-0.5
2017-03-11T04:03:07.150Z,-0.5
2017-03-11T04:03:25.808Z,-0.5
2017-03-11T04:03:44.464Z,-0.5
2017-03-11T04:04:03.117Z,-0.5
2017-03-11T04:04:21.772Z,-0.5
2017-03-11T04:04:40.483Z,-0.4
2017-03-11T04:04:59.159Z,-0.4
2017-03-11T04:05:17.816Z,-0.4
2017-03-11T04:05:36.468Z,-0.4
2017-03-11T04:05:55.172Z,-0.4
2017-03-11T04:06:13.838Z,-0.4
2017-03-11T04:06:32.493Z,-0.4
2017-03-11T04:06:51.151Z,-0.4
2017-03-11T04:07:09.810Z,-0.4
2017-03-11T04:07:28.474Z,-0.4
2017-03-11T04:07:47.139Z,-0.3
2017-03-11T04:08:05.810Z,-0.4
2017-03-11T04:08:24.493Z,-0.3
2017-03-11T04:08:43.150Z,-0.3
2017-03-11T04:09:01.806Z,-0.3